sensor_id;sensor_type;location;lat;lon;timestamp;noise_LAeq;noise_LA_min;noise_LA_max;noise_LA01;noise_LA95
73342;Laerm;61578;52.002;5.468;2023-01-10T00:00:37;39.79;37.17;42.55;;
73342;Laerm;61578;52.002;5.468;2023-01-10T00:01:08;39.84;37.68;42.31;;
73342;Laerm;61578;52.002;5.468;2023-01-10T00:01:39;39.77;37.31;41.89;;
73342;Laerm;61578;52.002;5.468;2023-01-10T00:02:10;39.87;37.51;42.34;;
73342;Laerm;61578;52.002;5.468;2023-01-10T00:02:41;39.84;37.73;42.52;;
73342;Laerm;61578;52.002;5.468;2023-01-10T00:03:12;39.78;37.74;42.03;;
73342;Laerm;61578;52.002;5.468;2023-01-10T00:03:43;39.54;37.48;42.03;;
73342;Laerm;61578;52.002;5.468;2023-01-10T00:04:14;39.85;37.59;42.55;;
73342;Laerm;61578;52.002;5.468;2023-01-10T00:04:45;39.87;37.40;42.52;;
73342;Laerm;61578;52.002;5.468;2023-01-10T00:05:37;39.76;37.33;42.38;;
73342;Laerm;61578;52.002;5.468;2023-01-10T00:06:08;39.84;37.56;42.41;;
73342;Laerm;61578;52.002;5.468;2023-01-10T00:06:39;39.93;37.35;42.64;;
73342;Laerm;61578;52.002;5.468;2023-01-10T00:07:10;39.85;37.47;42.68;;
73342;Laerm;61578;52.002;5.468;2023-01-10T00:07:41;39.93;36.95;42.22;;
73342;Laerm;61578;52.002;5.468;2023-01-10T00:08:16;39.84;37.53;42.44;;
73342;Laerm;61578;52.002;5.468;2023-01-10T00:08:47;39.85;37.20;42.00;;
73342;Laerm;61578;52.002;5.468;2023-01-10T00:09:19;39.87;37.61;42.69;;
73342;Laerm;61578;52.002;5.468;2023-01-10T00:09:49;39.73;37.58;42.02;;
73342;Laerm;61578;52.002;5.468;2023-01-10T00:10:39;39.82;37.50;42.30;;
73342;Laerm;61578;52.002;5.468;2023-01-10T00:11:10;39.96;37.97;42.04;;
73342;Laerm;61578;52.002;5.468;2023-01-10T00:11:59;39.85;37.16;42.82;;
73342;Laerm;61578;52.002;5.468;2023-01-10T00:12:48;39.87;37.43;42.14;;
73342;Laerm;61578;52.002;5.468;2023-01-10T00:13:38;39.78;37.59;42.32;;
73342;Laerm;61578;52.002;5.468;2023-01-10T00:14:09;39.93;37.37;42.94;;
73342;Laerm;61578;52.002;5.468;2023-01-10T00:14:41;39.96;37.33;42.19;;
73342;Laerm;61578;52.002;5.468;2023-01-10T00:15:12;39.84;37.53;42.13;;
73342;Laerm;61578;52.002;5.468;2023-01-10T00:15:44;39.97;38.07;42.28;;
73342;Laerm;61578;52.002;5.468;2023-01-10T00:16:15;40.02;37.73;42.31;;
73342;Laerm;61578;52.002;5.468;2023-01-10T00:16:46;39.82;37.63;42.18;;
73342;Laerm;61578;52.002;5.468;2023-01-10T00:17:16;39.95;37.92;42.90;;
73342;Laerm;61578;52.002;5.468;2023-01-10T00:17:48;40.01;37.74;42.84;;
73342;Laerm;61578;52.002;5.468;2023-01-10T00:18:20;39.86;37.44;42.55;;
73342;Laerm;61578;52.002;5.468;2023-01-10T00:18:57;39.81;37.16;42.24;;
73342;Laerm;61578;52.002;5.468;2023-01-10T00:19:28;39.85;37.63;42.74;;
73342;Laerm;61578;52.002;5.468;2023-01-10T00:20:05;39.76;37.60;42.39;;
73342;Laerm;61578;52.002;5.468;2023-01-10T00:20:36;39.99;37.76;43.42;;
73342;Laerm;61578;52.002;5.468;2023-01-10T00:21:07;39.87;37.73;42.41;;
73342;Laerm;61578;52.002;5.468;2023-01-10T00:21:39;39.72;37.57;42.04;;
73342;Laerm;61578;52.002;5.468;2023-01-10T00:22:10;39.78;37.43;42.10;;
73342;Laerm;61578;52.002;5.468;2023-01-10T00:22:41;39.65;37.65;42.22;;
73342;Laerm;61578;52.002;5.468;2023-01-10T00:23:14;39.69;37.37;42.33;;
73342;Laerm;61578;52.002;5.468;2023-01-10T00:23:45;39.65;37.18;42.60;;
73342;Laerm;61578;52.002;5.468;2023-01-10T00:24:18;39.65;37.73;41.82;;
73342;Laerm;61578;52.002;5.468;2023-01-10T00:24:49;39.70;37.66;42.29;;
73342;Laerm;61578;52.002;5.468;2023-01-10T00:25:39;39.88;37.44;42.35;;
73342;Laerm;61578;52.002;5.468;2023-01-10T00:26:11;39.87;37.93;42.41;;
73342;Laerm;61578;52.002;5.468;2023-01-10T00:26:43;39.94;37.78;42.16;;
73342;Laerm;61578;52.002;5.468;2023-01-10T00:27:15;39.91;37.56;42.86;;
73342;Laerm;61578;52.002;5.468;2023-01-10T00:27:53;39.89;37.41;42.79;;
73342;Laerm;61578;52.002;5.468;2023-01-10T00:28:43;39.97;37.66;42.65;;
73342;Laerm;61578;52.002;5.468;2023-01-10T00:29:14;39.76;37.65;42.15;;
73342;Laerm;61578;52.002;5.468;2023-01-10T00:29:45;39.89;37.74;42.46;;
73342;Laerm;61578;52.002;5.468;2023-01-10T00:30:39;39.95;37.49;42.25;;
73342;Laerm;61578;52.002;5.468;2023-01-10T00:31:29;39.72;37.63;42.39;;
73342;Laerm;61578;52.002;5.468;2023-01-10T00:32:00;39.65;37.44;41.89;;
73342;Laerm;61578;52.002;5.468;2023-01-10T00:32:31;39.96;37.43;42.22;;
73342;Laerm;61578;52.002;5.468;2023-01-10T00:33:02;39.72;37.57;42.35;;
73342;Laerm;61578;52.002;5.468;2023-01-10T00:33:35;39.62;37.24;42.38;;
73342;Laerm;61578;52.002;5.468;2023-01-10T00:34:06;40.09;37.76;42.41;;
73342;Laerm;61578;52.002;5.468;2023-01-10T00:34:37;39.85;37.57;42.34;;
73342;Laerm;61578;52.002;5.468;2023-01-10T00:35:09;39.99;37.98;43.12;;
73342;Laerm;61578;52.002;5.468;2023-01-10T00:35:41;39.98;37.41;42.37;;
73342;Laerm;61578;52.002;5.468;2023-01-10T00:36:12;39.79;37.69;42.45;;
73342;Laerm;61578;52.002;5.468;2023-01-10T00:36:43;39.79;37.32;43.04;;
73342;Laerm;61578;52.002;5.468;2023-01-10T00:37:15;39.95;37.55;42.09;;
73342;Laerm;61578;52.002;5.468;2023-01-10T00:37:45;39.99;38.10;42.31;;
73342;Laerm;61578;52.002;5.468;2023-01-10T00:38:17;39.85;37.81;42.24;;
73342;Laerm;61578;52.002;5.468;2023-01-10T00:38:48;39.98;37.83;42.51;;
73342;Laerm;61578;52.002;5.468;2023-01-10T00:39:19;40.18;37.53;43.02;;
73342;Laerm;61578;52.002;5.468;2023-01-10T00:39:50;40.14;37.80;42.68;;
73342;Laerm;61578;52.002;5.468;2023-01-10T00:40:39;40.00;37.81;42.33;;
73342;Laerm;61578;52.002;5.468;2023-01-10T00:41:29;40.03;37.71;42.84;;
73342;Laerm;61578;52.002;5.468;2023-01-10T00:42:18;40.00;37.69;42.69;;
73342;Laerm;61578;52.002;5.468;2023-01-10T00:43:09;39.95;37.45;42.39;;
73342;Laerm;61578;52.002;5.468;2023-01-10T00:43:58;40.00;37.76;42.92;;
73342;Laerm;61578;52.002;5.468;2023-01-10T00:44:30;39.92;37.32;42.59;;
73342;Laerm;61578;52.002;5.468;2023-01-10T00:45:01;39.95;37.57;42.43;;
73342;Laerm;61578;52.002;5.468;2023-01-10T00:45:47;39.82;37.58;42.41;;
73342;Laerm;61578;52.002;5.468;2023-01-10T00:46:18;39.78;37.50;42.85;;
73342;Laerm;61578;52.002;5.468;2023-01-10T00:46:49;39.88;37.23;42.48;;
73342;Laerm;61578;52.002;5.468;2023-01-10T00:47:19;39.92;37.68;43.24;;
73342;Laerm;61578;52.002;5.468;2023-01-10T00:47:51;39.96;37.41;42.69;;
73342;Laerm;61578;52.002;5.468;2023-01-10T00:48:23;39.87;37.05;43.05;;
73342;Laerm;61578;52.002;5.468;2023-01-10T00:48:53;40.10;37.56;43.54;;
73342;Laerm;61578;52.002;5.468;2023-01-10T00:49:25;39.98;37.51;42.40;;
73342;Laerm;61578;52.002;5.468;2023-01-10T00:49:56;40.00;37.90;42.61;;
73342;Laerm;61578;52.002;5.468;2023-01-10T00:50:28;40.14;37.95;42.74;;
73342;Laerm;61578;52.002;5.468;2023-01-10T00:50:59;40.12;37.92;42.83;;
73342;Laerm;61578;52.002;5.468;2023-01-10T00:51:29;39.98;37.04;43.21;;
73342;Laerm;61578;52.002;5.468;2023-01-10T00:52:00;40.11;37.89;43.07;;
73342;Laerm;61578;52.002;5.468;2023-01-10T00:52:31;39.90;37.84;42.52;;
73342;Laerm;61578;52.002;5.468;2023-01-10T00:53:02;39.78;37.80;42.48;;
73342;Laerm;61578;52.002;5.468;2023-01-10T00:53:39;40.02;37.70;42.73;;
73342;Laerm;61578;52.002;5.468;2023-01-10T00:54:12;40.00;37.62;43.00;;
73342;Laerm;61578;52.002;5.468;2023-01-10T00:54:43;39.71;37.60;42.28;;
73342;Laerm;61578;52.002;5.468;2023-01-10T00:55:34;39.95;37.59;42.77;;
73342;Laerm;61578;52.002;5.468;2023-01-10T00:56:05;39.72;37.41;41.91;;
73342;Laerm;61578;52.002;5.468;2023-01-10T00:56:39;39.74;37.74;42.73;;
73342;Laerm;61578;52.002;5.468;2023-01-10T00:57:10;39.92;37.73;42.54;;
73342;Laerm;61578;52.002;5.468;2023-01-10T00:57:41;39.80;37.55;42.57;;
73342;Laerm;61578;52.002;5.468;2023-01-10T00:58:14;40.07;37.77;42.66;;
73342;Laerm;61578;52.002;5.468;2023-01-10T00:58:45;40.16;37.46;42.89;;
73342;Laerm;61578;52.002;5.468;2023-01-10T00:59:16;40.02;37.57;43.04;;
73342;Laerm;61578;52.002;5.468;2023-01-10T00:59:47;39.81;37.58;42.82;;
73342;Laerm;61578;52.002;5.468;2023-01-10T01:00:37;40.06;37.89;43.20;;
73342;Laerm;61578;52.002;5.468;2023-01-10T01:01:08;40.05;37.93;42.71;;
73342;Laerm;61578;52.002;5.468;2023-01-10T01:01:39;40.01;37.74;42.47;;
73342;Laerm;61578;52.002;5.468;2023-01-10T01:02:10;39.90;37.49;43.15;;
73342;Laerm;61578;52.002;5.468;2023-01-10T01:02:41;40.09;37.87;43.13;;
73342;Laerm;61578;52.002;5.468;2023-01-10T01:03:20;39.78;37.39;43.04;;
73342;Laerm;61578;52.002;5.468;2023-01-10T01:03:52;39.72;37.67;43.02;;
73342;Laerm;61578;52.002;5.468;2023-01-10T01:04:24;40.16;38.02;43.00;;
73342;Laerm;61578;52.002;5.468;2023-01-10T01:04:54;39.97;37.52;42.89;;
73342;Laerm;61578;52.002;5.468;2023-01-10T01:05:46;40.11;37.52;42.72;;
73342;Laerm;61578;52.002;5.468;2023-01-10T01:06:18;40.10;37.77;42.59;;
73342;Laerm;61578;52.002;5.468;2023-01-10T01:06:48;39.89;37.63;42.38;;
73342;Laerm;61578;52.002;5.468;2023-01-10T01:07:20;39.96;37.69;42.76;;
73342;Laerm;61578;52.002;5.468;2023-01-10T01:07:51;39.90;37.36;42.24;;
73342;Laerm;61578;52.002;5.468;2023-01-10T01:08:22;39.73;37.47;42.20;;
73342;Laerm;61578;52.002;5.468;2023-01-10T01:08:53;39.73;37.59;42.27;;
73342;Laerm;61578;52.002;5.468;2023-01-10T01:09:24;39.98;37.65;44.61;;
73342;Laerm;61578;52.002;5.468;2023-01-10T01:09:55;39.97;37.72;42.27;;
73342;Laerm;61578;52.002;5.468;2023-01-10T01:10:45;39.94;37.58;43.03;;
73342;Laerm;61578;52.002;5.468;2023-01-10T01:11:16;40.08;37.86;42.65;;
73342;Laerm;61578;52.002;5.468;2023-01-10T01:11:47;39.79;37.73;42.10;;
73342;Laerm;61578;52.002;5.468;2023-01-10T01:12:18;39.88;37.67;42.43;;
73342;Laerm;61578;52.002;5.468;2023-01-10T01:12:49;39.96;37.72;42.88;;
73342;Laerm;61578;52.002;5.468;2023-01-10T01:13:23;39.77;37.62;42.13;;
73342;Laerm;61578;52.002;5.468;2023-01-10T01:13:55;39.79;37.54;42.24;;
73342;Laerm;61578;52.002;5.468;2023-01-10T01:14:26;39.70;37.59;42.20;;
73342;Laerm;61578;52.002;5.468;2023-01-10T01:14:57;39.78;37.47;43.00;;
73342;Laerm;61578;52.002;5.468;2023-01-10T01:15:27;39.75;37.38;42.40;;
73342;Laerm;61578;52.002;5.468;2023-01-10T01:15:59;39.70;37.51;46.29;;
73342;Laerm;61578;52.002;5.468;2023-01-10T01:16:30;39.84;37.51;43.29;;
73342;Laerm;61578;52.002;5.468;2023-01-10T01:17:01;39.73;37.68;42.17;;
73342;Laerm;61578;52.002;5.468;2023-01-10T01:17:32;40.18;37.86;44.01;;
73342;Laerm;61578;52.002;5.468;2023-01-10T01:18:05;40.17;37.92;42.93;;
73342;Laerm;61578;52.002;5.468;2023-01-10T01:18:36;40.04;37.79;42.93;;
73342;Laerm;61578;52.002;5.468;2023-01-10T01:19:06;40.16;37.78;42.53;;
73342;Laerm;61578;52.002;5.468;2023-01-10T01:19:37;40.09;37.95;42.64;;
73342;Laerm;61578;52.002;5.468;2023-01-10T01:20:09;39.79;37.42;42.81;;
73342;Laerm;61578;52.002;5.468;2023-01-10T01:20:49;39.85;37.71;42.36;;
73342;Laerm;61578;52.002;5.468;2023-01-10T01:21:22;39.87;37.36;42.96;;
73342;Laerm;61578;52.002;5.468;2023-01-10T01:21:57;39.71;37.44;42.40;;
73342;Laerm;61578;52.002;5.468;2023-01-10T01:22:28;39.93;37.61;42.41;;
73342;Laerm;61578;52.002;5.468;2023-01-10T01:23:01;39.89;37.80;42.24;;
73342;Laerm;61578;52.002;5.468;2023-01-10T01:23:33;39.84;37.41;42.65;;
73342;Laerm;61578;52.002;5.468;2023-01-10T01:24:04;39.77;37.87;42.08;;
73342;Laerm;61578;52.002;5.468;2023-01-10T01:24:35;39.71;37.53;42.17;;
73342;Laerm;61578;52.002;5.468;2023-01-10T01:25:07;39.70;37.74;42.25;;
73342;Laerm;61578;52.002;5.468;2023-01-10T01:25:41;39.75;37.70;43.05;;
73342;Laerm;61578;52.002;5.468;2023-01-10T01:26:11;39.64;37.61;42.70;;
73342;Laerm;61578;52.002;5.468;2023-01-10T01:26:42;39.66;37.65;42.68;;
73342;Laerm;61578;52.002;5.468;2023-01-10T01:27:13;39.68;37.68;42.02;;
73342;Laerm;61578;52.002;5.468;2023-01-10T01:27:44;39.90;37.59;42.35;;
73342;Laerm;61578;52.002;5.468;2023-01-10T01:28:15;39.93;37.61;42.63;;
73342;Laerm;61578;52.002;5.468;2023-01-10T01:28:45;39.65;37.32;42.42;;
73342;Laerm;61578;52.002;5.468;2023-01-10T01:29:16;39.79;37.77;43.01;;
73342;Laerm;61578;52.002;5.468;2023-01-10T01:29:47;39.72;37.49;42.61;;
73342;Laerm;61578;52.002;5.468;2023-01-10T01:30:30;39.73;37.61;42.36;;
73342;Laerm;61578;52.002;5.468;2023-01-10T01:31:09;39.96;37.68;42.77;;
73342;Laerm;61578;52.002;5.468;2023-01-10T01:31:40;39.91;37.86;42.47;;
73342;Laerm;61578;52.002;5.468;2023-01-10T01:32:10;39.98;37.69;42.39;;
73342;Laerm;61578;52.002;5.468;2023-01-10T01:32:41;39.86;37.88;42.72;;
73342;Laerm;61578;52.002;5.468;2023-01-10T01:33:13;39.96;37.78;42.82;;
73342;Laerm;61578;52.002;5.468;2023-01-10T01:33:43;39.92;37.54;42.45;;
73342;Laerm;61578;52.002;5.468;2023-01-10T01:34:15;39.99;37.44;42.62;;
73342;Laerm;61578;52.002;5.468;2023-01-10T01:34:46;40.04;37.78;42.42;;
73342;Laerm;61578;52.002;5.468;2023-01-10T01:35:20;40.01;37.70;48.07;;
73342;Laerm;61578;52.002;5.468;2023-01-10T01:35:51;39.89;37.62;42.29;;
73342;Laerm;61578;52.002;5.468;2023-01-10T01:36:22;39.61;37.53;41.91;;
73342;Laerm;61578;52.002;5.468;2023-01-10T01:36:53;39.51;37.27;42.26;;
73342;Laerm;61578;52.002;5.468;2023-01-10T01:37:26;39.71;37.24;42.81;;
73342;Laerm;61578;52.002;5.468;2023-01-10T01:37:57;39.55;37.37;41.73;;
73342;Laerm;61578;52.002;5.468;2023-01-10T01:38:28;39.82;37.87;42.67;;
73342;Laerm;61578;52.002;5.468;2023-01-10T01:38:59;39.79;37.52;42.15;;
73342;Laerm;61578;52.002;5.468;2023-01-10T01:39:30;39.55;37.35;41.72;;
73342;Laerm;61578;52.002;5.468;2023-01-10T01:40:01;39.60;37.44;41.89;;
73342;Laerm;61578;52.002;5.468;2023-01-10T01:40:31;39.62;37.31;42.57;;
73342;Laerm;61578;52.002;5.468;2023-01-10T01:41:03;39.70;37.50;42.86;;
73342;Laerm;61578;52.002;5.468;2023-01-10T01:41:34;39.68;37.27;42.57;;
73342;Laerm;61578;52.002;5.468;2023-01-10T01:42:30;40.00;37.40;42.85;;
73342;Laerm;61578;52.002;5.468;2023-01-10T01:43:01;40.06;37.78;42.90;;
73342;Laerm;61578;52.002;5.468;2023-01-10T01:44:37;39.82;37.72;42.33;;
73342;Laerm;61578;52.002;5.468;2023-01-10T01:46:22;39.77;37.11;42.40;;
73342;Laerm;61578;52.002;5.468;2023-01-10T01:47:06;39.81;37.28;42.89;;
73342;Laerm;61578;52.002;5.468;2023-01-10T01:48:37;39.63;37.54;43.85;;
73342;Laerm;61578;52.002;5.468;2023-01-10T01:49:20;39.67;37.19;42.51;;
73342;Laerm;61578;52.002;5.468;2023-01-10T01:49:54;39.76;37.33;42.17;;
73342;Laerm;61578;52.002;5.468;2023-01-10T01:51:37;39.72;37.45;42.83;;
73342;Laerm;61578;52.002;5.468;2023-01-10T01:52:25;40.08;37.85;42.88;;
73342;Laerm;61578;52.002;5.468;2023-01-10T01:53:03;39.96;37.42;42.86;;
73342;Laerm;61578;52.002;5.468;2023-01-10T01:53:51;39.76;37.60;42.65;;
73342;Laerm;61578;52.002;5.468;2023-01-10T01:54:26;40.05;37.59;42.72;;
73342;Laerm;61578;52.002;5.468;2023-01-10T01:55:03;40.17;37.95;42.71;;
73342;Laerm;61578;52.002;5.468;2023-01-10T01:56:01;39.89;37.58;43.28;;
73342;Laerm;61578;52.002;5.468;2023-01-10T01:57:23;40.08;37.13;42.80;;
73342;Laerm;61578;52.002;5.468;2023-01-10T01:58:02;40.17;37.79;43.02;;
73342;Laerm;61578;52.002;5.468;2023-01-10T01:58:48;39.99;37.61;42.73;;
73342;Laerm;61578;52.002;5.468;2023-01-10T01:59:35;40.16;37.87;42.96;;
73342;Laerm;61578;52.002;5.468;2023-01-10T02:00:08;40.12;37.85;42.60;;
73342;Laerm;61578;52.002;5.468;2023-01-10T02:00:59;40.13;37.74;43.44;;
73342;Laerm;61578;52.002;5.468;2023-01-10T02:01:32;39.91;37.89;42.25;;
73342;Laerm;61578;52.002;5.468;2023-01-10T02:02:17;39.92;37.38;42.80;;
73342;Laerm;61578;52.002;5.468;2023-01-10T02:02:53;39.82;37.33;42.88;;
73342;Laerm;61578;52.002;5.468;2023-01-10T02:03:27;39.81;37.45;42.84;;
73342;Laerm;61578;52.002;5.468;2023-01-10T02:04:10;40.15;37.55;42.86;;
73342;Laerm;61578;52.002;5.468;2023-01-10T02:05:09;40.09;37.61;42.40;;
73342;Laerm;61578;52.002;5.468;2023-01-10T02:05:46;40.00;37.65;43.00;;
73342;Laerm;61578;52.002;5.468;2023-01-10T02:06:19;39.86;37.53;42.27;;
73342;Laerm;61578;52.002;5.468;2023-01-10T02:06:55;40.03;37.41;42.88;;
73342;Laerm;61578;52.002;5.468;2023-01-10T02:07:35;40.14;38.00;43.33;;
73342;Laerm;61578;52.002;5.468;2023-01-10T02:08:10;39.97;37.83;42.64;;
73342;Laerm;61578;52.002;5.468;2023-01-10T02:08:57;40.16;37.98;43.06;;
73342;Laerm;61578;52.002;5.468;2023-01-10T02:09:44;40.18;37.82;42.56;;
73342;Laerm;61578;52.002;5.468;2023-01-10T02:10:57;40.05;37.47;43.42;;
73342;Laerm;61578;52.002;5.468;2023-01-10T02:11:43;40.08;37.70;43.10;;
73342;Laerm;61578;52.002;5.468;2023-01-10T02:12:14;40.35;38.30;44.59;;
73342;Laerm;61578;52.002;5.468;2023-01-10T02:12:50;40.26;38.02;43.05;;
73342;Laerm;61578;52.002;5.468;2023-01-10T02:13:26;40.15;37.89;42.78;;
73342;Laerm;61578;52.002;5.468;2023-01-10T02:13:59;39.84;37.56;42.43;;
73342;Laerm;61578;52.002;5.468;2023-01-10T02:14:33;39.86;37.59;42.61;;
73342;Laerm;61578;52.002;5.468;2023-01-10T02:15:06;40.18;37.36;43.79;;
73342;Laerm;61578;52.002;5.468;2023-01-10T02:15:52;39.79;37.47;42.65;;
73342;Laerm;61578;52.002;5.468;2023-01-10T02:16:23;39.96;37.53;42.25;;
73342;Laerm;61578;52.002;5.468;2023-01-10T02:16:54;40.11;37.55;42.47;;
73342;Laerm;61578;52.002;5.468;2023-01-10T02:17:25;40.20;38.02;43.07;;
73342;Laerm;61578;52.002;5.468;2023-01-10T02:17:58;40.09;37.40;42.67;;
73342;Laerm;61578;52.002;5.468;2023-01-10T02:18:32;40.17;37.96;42.74;;
73342;Laerm;61578;52.002;5.468;2023-01-10T02:20:12;40.21;37.12;43.38;;
73342;Laerm;61578;52.002;5.468;2023-01-10T02:27:25;40.21;37.48;43.89;;
73342;Laerm;61578;52.002;5.468;2023-01-10T02:36:59;40.13;37.64;43.34;;
73342;Laerm;61578;52.002;5.468;2023-01-10T02:37:59;40.22;37.66;43.42;;
73342;Laerm;61578;52.002;5.468;2023-01-10T02:41:08;40.25;37.54;47.13;;
73342;Laerm;61578;52.002;5.468;2023-01-10T02:42:07;40.46;37.90;44.07;;
73342;Laerm;61578;52.002;5.468;2023-01-10T02:42:54;40.03;37.55;43.61;;
73342;Laerm;61578;52.002;5.468;2023-01-10T02:43:46;40.57;37.67;46.01;;
73342;Laerm;61578;52.002;5.468;2023-01-10T02:44:40;40.40;37.92;43.77;;
73342;Laerm;61578;52.002;5.468;2023-01-10T02:45:37;40.28;37.31;42.94;;
73342;Laerm;61578;52.002;5.468;2023-01-10T02:46:31;40.24;37.69;45.96;;
73342;Laerm;61578;52.002;5.468;2023-01-10T02:47:12;40.19;37.79;42.66;;
73342;Laerm;61578;52.002;5.468;2023-01-10T02:47:46;40.14;37.67;43.28;;
73342;Laerm;61578;52.002;5.468;2023-01-10T02:48:17;40.34;37.99;43.33;;
73342;Laerm;61578;52.002;5.468;2023-01-10T02:48:51;40.13;37.64;42.71;;
73342;Laerm;61578;52.002;5.468;2023-01-10T02:49:22;40.33;37.88;43.69;;
73342;Laerm;61578;52.002;5.468;2023-01-10T02:49:53;40.13;37.75;42.66;;
73342;Laerm;61578;52.002;5.468;2023-01-10T02:51:36;40.26;37.58;42.87;;
73342;Laerm;61578;52.002;5.468;2023-01-10T02:52:25;40.04;37.69;42.54;;
73342;Laerm;61578;52.002;5.468;2023-01-10T02:53:03;40.07;37.53;43.10;;
73342;Laerm;61578;52.002;5.468;2023-01-10T02:54:29;40.37;37.71;43.88;;
73342;Laerm;61578;52.002;5.468;2023-01-10T02:55:02;40.29;37.38;43.08;;
73342;Laerm;61578;52.002;5.468;2023-01-10T03:02:13;40.18;37.55;43.48;;
73342;Laerm;61578;52.002;5.468;2023-01-10T03:03:55;40.03;37.61;43.80;;
73342;Laerm;61578;52.002;5.468;2023-01-10T03:08:38;40.06;37.79;42.98;;
73342;Laerm;61578;52.002;5.468;2023-01-10T03:09:38;40.21;37.72;43.39;;
73342;Laerm;61578;52.002;5.468;2023-01-10T03:11:26;40.13;37.34;42.66;;
73342;Laerm;61578;52.002;5.468;2023-01-10T03:13:26;40.05;37.76;42.90;;
73342;Laerm;61578;52.002;5.468;2023-01-10T03:14:03;40.22;37.80;43.89;;
73342;Laerm;61578;52.002;5.468;2023-01-10T03:14:39;40.17;37.47;43.36;;
73342;Laerm;61578;52.002;5.468;2023-01-10T03:15:17;40.06;37.76;42.89;;
73342;Laerm;61578;52.002;5.468;2023-01-10T03:16:26;39.87;37.39;43.10;;
73342;Laerm;61578;52.002;5.468;2023-01-10T03:17:06;39.91;37.64;42.64;;
73342;Laerm;61578;52.002;5.468;2023-01-10T03:17:46;40.26;38.04;42.69;;
73342;Laerm;61578;52.002;5.468;2023-01-10T03:19:00;40.15;37.63;42.93;;
73342;Laerm;61578;52.002;5.468;2023-01-10T03:19:43;40.10;37.85;43.14;;
73342;Laerm;61578;52.002;5.468;2023-01-10T03:20:20;40.15;37.89;42.86;;
73342;Laerm;61578;52.002;5.468;2023-01-10T03:21:12;40.21;37.64;43.23;;
73342;Laerm;61578;52.002;5.468;2023-01-10T03:21:52;39.99;37.55;43.03;;
73342;Laerm;61578;52.002;5.468;2023-01-10T03:22:29;40.12;37.83;42.91;;
73342;Laerm;61578;52.002;5.468;2023-01-10T03:23:05;40.13;37.37;43.38;;
73342;Laerm;61578;52.002;5.468;2023-01-10T03:23:37;40.06;37.51;42.84;;
73342;Laerm;61578;52.002;5.468;2023-01-10T03:24:19;40.36;37.36;42.98;;
73342;Laerm;61578;52.002;5.468;2023-01-10T03:24:59;40.66;37.36;53.30;;
73342;Laerm;61578;52.002;5.468;2023-01-10T03:25:36;40.16;37.95;42.99;;
73342;Laerm;61578;52.002;5.468;2023-01-10T03:26:53;40.35;37.60;43.48;;
73342;Laerm;61578;52.002;5.468;2023-01-10T03:27:53;40.27;37.70;43.28;;
73342;Laerm;61578;52.002;5.468;2023-01-10T03:28:40;40.12;37.59;43.07;;
73342;Laerm;61578;52.002;5.468;2023-01-10T03:29:41;40.07;37.33;43.00;;
73342;Laerm;61578;52.002;5.468;2023-01-10T03:30:38;39.99;37.49;42.84;;
73342;Laerm;61578;52.002;5.468;2023-01-10T03:31:30;40.10;37.73;43.11;;
73342;Laerm;61578;52.002;5.468;2023-01-10T03:32:11;40.11;37.65;43.35;;
73342;Laerm;61578;52.002;5.468;2023-01-10T03:32:43;39.99;37.49;43.27;;
73342;Laerm;61578;52.002;5.468;2023-01-10T03:33:22;40.30;37.61;43.58;;
73342;Laerm;61578;52.002;5.468;2023-01-10T03:33:55;39.93;37.51;42.71;;
73342;Laerm;61578;52.002;5.468;2023-01-10T03:34:26;40.01;37.74;42.39;;
73342;Laerm;61578;52.002;5.468;2023-01-10T03:35:00;40.43;37.83;45.17;;
73342;Laerm;61578;52.002;5.468;2023-01-10T03:37:53;40.27;37.66;44.31;;
73342;Laerm;61578;52.002;5.468;2023-01-10T03:40:25;40.12;37.31;46.03;;
73342;Laerm;61578;52.002;5.468;2023-01-10T03:42:33;40.13;37.79;43.27;;
73342;Laerm;61578;52.002;5.468;2023-01-10T03:43:52;40.07;37.52;43.08;;
73342;Laerm;61578;52.002;5.468;2023-01-10T03:44:52;40.65;37.39;47.27;;
73342;Laerm;61578;52.002;5.468;2023-01-10T03:45:42;40.19;37.71;42.54;;
73342;Laerm;61578;52.002;5.468;2023-01-10T03:46:58;40.23;37.09;43.67;;
73342;Laerm;61578;52.002;5.468;2023-01-10T03:47:42;40.09;37.86;42.92;;
73342;Laerm;61578;52.002;5.468;2023-01-10T03:48:18;39.89;37.84;42.59;;
73342;Laerm;61578;52.002;5.468;2023-01-10T03:48:56;39.88;37.50;42.33;;
73342;Laerm;61578;52.002;5.468;2023-01-10T03:49:30;39.88;37.57;42.48;;
73342;Laerm;61578;52.002;5.468;2023-01-10T03:50:15;39.99;37.45;43.10;;
73342;Laerm;61578;52.002;5.468;2023-01-10T03:50:50;40.05;37.79;42.95;;
73342;Laerm;61578;52.002;5.468;2023-01-10T03:51:43;40.13;37.72;42.47;;
73342;Laerm;61578;52.002;5.468;2023-01-10T03:52:18;40.20;38.21;42.68;;
73342;Laerm;61578;52.002;5.468;2023-01-10T03:52:49;40.27;38.00;44.76;;
73342;Laerm;61578;52.002;5.468;2023-01-10T03:53:21;40.20;37.64;43.47;;
73342;Laerm;61578;52.002;5.468;2023-01-10T03:53:52;40.16;37.49;43.69;;
73342;Laerm;61578;52.002;5.468;2023-01-10T03:54:24;40.17;37.65;43.20;;
73342;Laerm;61578;52.002;5.468;2023-01-10T03:54:54;39.84;37.79;43.06;;
73342;Laerm;61578;52.002;5.468;2023-01-10T03:55:30;39.86;37.41;42.95;;
73342;Laerm;61578;52.002;5.468;2023-01-10T03:56:02;39.93;37.22;42.82;;
73342;Laerm;61578;52.002;5.468;2023-01-10T03:56:50;39.73;37.38;42.55;;
73342;Laerm;61578;52.002;5.468;2023-01-10T03:57:23;40.07;37.64;43.12;;
73342;Laerm;61578;52.002;5.468;2023-01-10T03:57:54;39.90;37.49;43.53;;
73342;Laerm;61578;52.002;5.468;2023-01-10T03:58:28;39.96;37.72;42.77;;
73342;Laerm;61578;52.002;5.468;2023-01-10T03:58:59;40.05;37.80;44.43;;
73342;Laerm;61578;52.002;5.468;2023-01-10T03:59:30;40.09;37.70;43.65;;
73342;Laerm;61578;52.002;5.468;2023-01-10T04:00:01;40.00;37.05;42.82;;
73342;Laerm;61578;52.002;5.468;2023-01-10T04:00:34;40.05;37.61;44.10;;
73342;Laerm;61578;52.002;5.468;2023-01-10T04:01:23;39.97;37.75;42.73;;
73342;Laerm;61578;52.002;5.468;2023-01-10T04:02:10;40.05;37.72;42.57;;
73342;Laerm;61578;52.002;5.468;2023-01-10T04:02:41;40.12;38.07;42.75;;
73342;Laerm;61578;52.002;5.468;2023-01-10T04:03:14;40.06;37.51;42.68;;
73342;Laerm;61578;52.002;5.468;2023-01-10T04:03:49;39.90;37.32;42.60;;
73342;Laerm;61578;52.002;5.468;2023-01-10T04:04:20;40.02;37.90;43.18;;
73342;Laerm;61578;52.002;5.468;2023-01-10T04:04:51;39.84;37.30;42.45;;
73342;Laerm;61578;52.002;5.468;2023-01-10T04:05:23;40.10;37.92;42.77;;
73342;Laerm;61578;52.002;5.468;2023-01-10T04:06:12;40.14;37.73;42.95;;
73342;Laerm;61578;52.002;5.468;2023-01-10T04:06:43;40.05;37.48;42.79;;
73342;Laerm;61578;52.002;5.468;2023-01-10T04:07:15;39.78;37.70;42.58;;
73342;Laerm;61578;52.002;5.468;2023-01-10T04:07:45;39.89;37.63;43.05;;
73342;Laerm;61578;52.002;5.468;2023-01-10T04:08:18;39.90;37.18;43.31;;
73342;Laerm;61578;52.002;5.468;2023-01-10T04:08:49;40.04;37.83;42.90;;
73342;Laerm;61578;52.002;5.468;2023-01-10T04:09:20;39.79;37.22;42.15;;
73342;Laerm;61578;52.002;5.468;2023-01-10T04:09:51;40.00;37.51;43.09;;
73342;Laerm;61578;52.002;5.468;2023-01-10T04:10:22;40.25;37.94;42.85;;
73342;Laerm;61578;52.002;5.468;2023-01-10T04:11:14;40.23;37.75;43.33;;
73342;Laerm;61578;52.002;5.468;2023-01-10T04:11:48;40.12;37.73;42.71;;
73342;Laerm;61578;52.002;5.468;2023-01-10T04:12:19;39.79;37.43;42.42;;